sensor_id;sensor_type;location;lat;lon;timestamp;temperature;humidity
17370;DHT22;8802;52.402;4.920;2023-03-14T00:00:50;14.30;99.90
17370;DHT22;8802;52.402;4.920;2023-03-14T00:03:17;14.30;99.90
17370;DHT22;8802;52.402;4.920;2023-03-14T00:05:44;14.30;99.90
17370;DHT22;8802;52.402;4.920;2023-03-14T00:08:12;14.30;99.90
17370;DHT22;8802;52.402;4.920;2023-03-14T00:10:39;14.20;99.90
17370;DHT22;8802;52.402;4.920;2023-03-14T00:13:07;14.20;99.90
17370;DHT22;8802;52.402;4.920;2023-03-14T00:15:34;14.20;99.90
17370;DHT22;8802;52.402;4.920;2023-03-14T00:18:01;14.20;99.90
17370;DHT22;8802;52.402;4.920;2023-03-14T00:20:28;14.10;99.90
17370;DHT22;8802;52.402;4.920;2023-03-14T00:22:55;14.20;99.90
17370;DHT22;8802;52.402;4.920;2023-03-14T00:25:22;14.10;99.90
17370;DHT22;8802;52.402;4.920;2023-03-14T00:27:50;14.10;99.90
17370;DHT22;8802;52.402;4.920;2023-03-14T00:30:19;14.10;99.90
17370;DHT22;8802;52.402;4.920;2023-03-14T00:32:46;14.10;99.90
17370;DHT22;8802;52.402;4.920;2023-03-14T00:35:12;14.10;99.90
17370;DHT22;8802;52.402;4.920;2023-03-14T00:37:39;14.10;99.90
17370;DHT22;8802;52.402;4.920;2023-03-14T00:40:08;14.00;99.90
17370;DHT22;8802;52.402;4.920;2023-03-14T00:42:35;14.00;99.90
17370;DHT22;8802;52.402;4.920;2023-03-14T00:45:02;14.00;99.90
17370;DHT22;8802;52.402;4.920;2023-03-14T00:47:30;14.00;99.90
17370;DHT22;8802;52.402;4.920;2023-03-14T00:49:57;14.00;99.90
17370;DHT22;8802;52.402;4.920;2023-03-14T00:52:24;14.00;99.90
17370;DHT22;8802;52.402;4.920;2023-03-14T00:54:51;14.00;99.90
17370;DHT22;8802;52.402;4.920;2023-03-14T00:57:18;14.00;99.90
17370;DHT22;8802;52.402;4.920;2023-03-14T00:59:44;14.00;99.90
17370;DHT22;8802;52.402;4.920;2023-03-14T01:02:11;14.00;99.90
17370;DHT22;8802;52.402;4.920;2023-03-14T01:04:39;14.00;99.90
17370;DHT22;8802;52.402;4.920;2023-03-14T01:07:08;14.00;99.90
17370;DHT22;8802;52.402;4.920;2023-03-14T01:09:35;14.00;99.90
17370;DHT22;8802;52.402;4.920;2023-03-14T01:12:02;14.00;99.90
17370;DHT22;8802;52.402;4.920;2023-03-14T01:14:29;14.00;99.90
17370;DHT22;8802;52.402;4.920;2023-03-14T01:16:56;14.00;99.90
17370;DHT22;8802;52.402;4.920;2023-03-14T01:19:26;14.00;99.90
17370;DHT22;8802;52.402;4.920;2023-03-14T01:21:54;14.00;99.90
17370;DHT22;8802;52.402;4.920;2023-03-14T01:24:21;14.00;99.90
17370;DHT22;8802;52.402;4.920;2023-03-14T01:26:48;14.00;99.90
17370;DHT22;8802;52.402;4.920;2023-03-14T01:29:14;13.90;99.90
17370;DHT22;8802;52.402;4.920;2023-03-14T01:31:41;13.90;99.90
17370;DHT22;8802;52.402;4.920;2023-03-14T01:34:08;13.90;99.90
17370;DHT22;8802;52.402;4.920;2023-03-14T01:36:35;13.90;99.90
17370;DHT22;8802;52.402;4.920;2023-03-14T01:39:04;13.90;99.90
17370;DHT22;8802;52.402;4.920;2023-03-14T01:41:32;13.90;99.90
17370;DHT22;8802;52.402;4.920;2023-03-14T01:43:59;13.90;99.90
17370;DHT22;8802;52.402;4.920;2023-03-14T01:46:36;13.90;99.90
17370;DHT22;8802;52.402;4.920;2023-03-14T01:49:07;13.90;99.90
17370;DHT22;8802;52.402;4.920;2023-03-14T01:51:41;13.90;99.90
17370;DHT22;8802;52.402;4.920;2023-03-14T01:54:16;13.80;99.90
17370;DHT22;8802;52.402;4.920;2023-03-14T01:56:46;13.80;99.90
17370;DHT22;8802;52.402;4.920;2023-03-14T01:59:14;13.80;99.90
17370;DHT22;8802;52.402;4.920;2023-03-14T02:01:43;13.80;99.90
17370;DHT22;8802;52.402;4.920;2023-03-14T02:04:11;13.80;99.90
17370;DHT22;8802;52.402;4.920;2023-03-14T02:06:48;13.80;99.90
17370;DHT22;8802;52.402;4.920;2023-03-14T02:09:18;13.70;99.90
17370;DHT22;8802;52.402;4.920;2023-03-14T02:11:45;13.80;99.90
17370;DHT22;8802;52.402;4.920;2023-03-14T02:14:21;13.80;99.90
17370;DHT22;8802;52.402;4.920;2023-03-14T02:16:48;13.80;99.90
17370;DHT22;8802;52.402;4.920;2023-03-14T02:19:18;13.70;99.90
17370;DHT22;8802;52.402;4.920;2023-03-14T02:21:55;13.70;99.90
17370;DHT22;8802;52.402;4.920;2023-03-14T02:24:34;13.70;99.90
17370;DHT22;8802;52.402;4.920;2023-03-14T02:27:09;13.80;99.90
17370;DHT22;8802;52.402;4.920;2023-03-14T02:29:41;13.70;99.90
17370;DHT22;8802;52.402;4.920;2023-03-14T02:32:12;13.70;99.90
17370;DHT22;8802;52.402;4.920;2023-03-14T02:34:40;13.70;99.90
17370;DHT22;8802;52.402;4.920;2023-03-14T02:37:09;13.70;99.90
17370;DHT22;8802;52.402;4.920;2023-03-14T02:39:38;13.70;99.90
17370;DHT22;8802;52.402;4.920;2023-03-14T02:42:07;13.70;99.90
17370;DHT22;8802;52.402;4.920;2023-03-14T02:44:34;13.70;99.90
17370;DHT22;8802;52.402;4.920;2023-03-14T02:47:02;13.70;99.90
17370;DHT22;8802;52.402;4.920;2023-03-14T02:49:32;13.70;99.90
17370;DHT22;8802;52.402;4.920;2023-03-14T02:51:59;13.70;99.90
17370;DHT22;8802;52.402;4.920;2023-03-14T02:54:26;13.70;99.90
17370;DHT22;8802;52.402;4.920;2023-03-14T02:56:53;13.70;99.90
17370;DHT22;8802;52.402;4.920;2023-03-14T02:59:21;13.70;99.90
17370;DHT22;8802;52.402;4.920;2023-03-14T03:01:48;13.70;99.90
17370;DHT22;8802;52.402;4.920;2023-03-14T03:04:14;13.70;99.90
17370;DHT22;8802;52.402;4.920;2023-03-14T03:06:41;13.70;99.90
17370;DHT22;8802;52.402;4.920;2023-03-14T03:09:08;13.70;99.90
17370;DHT22;8802;52.402;4.920;2023-03-14T03:11:35;13.70;99.90
17370;DHT22;8802;52.402;4.920;2023-03-14T03:14:01;13.70;99.90
17370;DHT22;8802;52.402;4.920;2023-03-14T03:16:30;13.80;99.90
17370;DHT22;8802;52.402;4.920;2023-03-14T03:18:56;13.70;99.90
17370;DHT22;8802;52.402;4.920;2023-03-14T03:21:23;13.70;99.90
17370;DHT22;8802;52.402;4.920;2023-03-14T03:23:50;13.70;99.90
17370;DHT22;8802;52.402;4.920;2023-03-14T03:26:17;13.70;99.90
17370;DHT22;8802;52.402;4.920;2023-03-14T03:28:44;13.70;99.90
17370;DHT22;8802;52.402;4.920;2023-03-14T03:31:11;13.70;99.90
17370;DHT22;8802;52.402;4.920;2023-03-14T03:33:40;13.70;99.90
17370;DHT22;8802;52.402;4.920;2023-03-14T03:36:08;13.70;99.90
17370;DHT22;8802;52.402;4.920;2023-03-14T03:38:35;13.70;99.90
17370;DHT22;8802;52.402;4.920;2023-03-14T03:41:03;13.70;99.90
17370;DHT22;8802;52.402;4.920;2023-03-14T03:43:30;13.70;99.90
17370;DHT22;8802;52.402;4.920;2023-03-14T03:45:57;13.70;99.90
17370;DHT22;8802;52.402;4.920;2023-03-14T03:48:24;13.70;99.90
17370;DHT22;8802;52.402;4.920;2023-03-14T03:50:52;13.70;99.90
17370;DHT22;8802;52.402;4.920;2023-03-14T03:53:19;13.70;99.90
17370;DHT22;8802;52.402;4.920;2023-03-14T03:55:45;13.70;99.90
17370;DHT22;8802;52.402;4.920;2023-03-14T03:58:12;13.70;99.90
17370;DHT22;8802;52.402;4.920;2023-03-14T04:00:39;13.70;99.90
17370;DHT22;8802;52.402;4.920;2023-03-14T04:03:06;13.70;99.90
17370;DHT22;8802;52.402;4.920;2023-03-14T04:05:33;13.70;99.90
17370;DHT22;8802;52.402;4.920;2023-03-14T04:08:02;13.70;99.90
17370;DHT22;8802;52.402;4.920;2023-03-14T04:10:29;13.60;99.90
17370;DHT22;8802;52.402;4.920;2023-03-14T04:12:56;13.70;99.90
17370;DHT22;8802;52.402;4.920;2023-03-14T04:15:23;13.70;99.90
17370;DHT22;8802;52.402;4.920;2023-03-14T04:17:50;13.70;99.90
17370;DHT22;8802;52.402;4.920;2023-03-14T04:20:17;13.60;99.90
17370;DHT22;8802;52.402;4.920;2023-03-14T04:22:43;13.60;99.90
17370;DHT22;8802;52.402;4.920;2023-03-14T04:25:11;13.60;99.90
17370;DHT22;8802;52.402;4.920;2023-03-14T04:27:38;13.60;99.90
17370;DHT22;8802;52.402;4.920;2023-03-14T04:30:06;13.60;99.90
17370;DHT22;8802;52.402;4.920;2023-03-14T04:32:33;13.60;99.90
17370;DHT22;8802;52.402;4.920;2023-03-14T04:35:00;13.50;99.90
17370;DHT22;8802;52.402;4.920;2023-03-14T04:37:27;13.60;99.90
17370;DHT22;8802;52.402;4.920;2023-03-14T04:39:54;13.50;99.90
17370;DHT22;8802;52.402;4.920;2023-03-14T04:42:22;13.50;99.90
17370;DHT22;8802;52.402;4.920;2023-03-14T04:44:48;13.50;99.90
17370;DHT22;8802;52.402;4.920;2023-03-14T04:47:15;13.40;99.90
17370;DHT22;8802;52.402;4.920;2023-03-14T04:49:42;13.50;99.90
17370;DHT22;8802;52.402;4.920;2023-03-14T04:52:09;13.40;99.90
17370;DHT22;8802;52.402;4.920;2023-03-14T04:54:36;13.40;99.90
17370;DHT22;8802;52.402;4.920;2023-03-14T04:57:03;13.40;99.90
17370;DHT22;8802;52.402;4.920;2023-03-14T04:59:31;13.40;99.90
17370;DHT22;8802;52.402;4.920;2023-03-14T05:01:58;13.40;99.90
17370;DHT22;8802;52.402;4.920;2023-03-14T05:04:24;13.30;99.90
17370;DHT22;8802;52.402;4.920;2023-03-14T05:06:51;13.30;99.90
17370;DHT22;8802;52.402;4.920;2023-03-14T05:09:18;13.30;99.90
17370;DHT22;8802;52.402;4.920;2023-03-14T05:11:45;13.30;99.90
17370;DHT22;8802;52.402;4.920;2023-03-14T05:14:12;13.30;99.90
17370;DHT22;8802;52.402;4.920;2023-03-14T05:16:40;13.20;99.90
17370;DHT22;8802;52.402;4.920;2023-03-14T05:19:07;13.20;99.90
17370;DHT22;8802;52.402;4.920;2023-03-14T05:21:34;13.20;99.90
17370;DHT22;8802;52.402;4.920;2023-03-14T05:24:01;13.20;99.90
17370;DHT22;8802;52.402;4.920;2023-03-14T05:26:28;13.20;99.90
17370;DHT22;8802;52.402;4.920;2023-03-14T05:28:54;13.20;99.90
17370;DHT22;8802;52.402;4.920;2023-03-14T05:31:21;13.10;99.90
17370;DHT22;8802;52.402;4.920;2023-03-14T05:33:49;13.10;99.90
17370;DHT22;8802;52.402;4.920;2023-03-14T05:36:16;13.10;99.90
17370;DHT22;8802;52.402;4.920;2023-03-14T05:38:43;13.10;99.90
17370;DHT22;8802;52.402;4.920;2023-03-14T05:41:10;13.10;99.90
17370;DHT22;8802;52.402;4.920;2023-03-14T05:43:37;13.00;99.90
17370;DHT22;8802;52.402;4.920;2023-03-14T05:46:05;13.10;99.90
17370;DHT22;8802;52.402;4.920;2023-03-14T05:48:32;13.00;99.90
17370;DHT22;8802;52.402;4.920;2023-03-14T05:51:00;13.00;99.90
17370;DHT22;8802;52.402;4.920;2023-03-14T05:53:27;12.90;99.90
17370;DHT22;8802;52.402;4.920;2023-03-14T05:55:56;12.90;99.90
17370;DHT22;8802;52.402;4.920;2023-03-14T05:58:23;12.90;99.90
17370;DHT22;8802;52.402;4.920;2023-03-14T06:00:50;12.80;99.90
17370;DHT22;8802;52.402;4.920;2023-03-14T06:03:17;12.80;99.90
17370;DHT22;8802;52.402;4.920;2023-03-14T06:05:43;12.80;99.90
17370;DHT22;8802;52.402;4.920;2023-03-14T06:08:12;12.70;99.90
17370;DHT22;8802;52.402;4.920;2023-03-14T06:10:38;12.60;99.90
17370;DHT22;8802;52.402;4.920;2023-03-14T06:13:05;12.60;99.90
17370;DHT22;8802;52.402;4.920;2023-03-14T06:15:32;12.50;99.90
17370;DHT22;8802;52.402;4.920;2023-03-14T06:18:01;12.50;99.90
17370;DHT22;8802;52.402;4.920;2023-03-14T06:20:28;12.50;99.90
17370;DHT22;8802;52.402;4.920;2023-03-14T06:22:55;12.40;99.90
17370;DHT22;8802;52.402;4.920;2023-03-14T06:25:23;12.40;99.90
17370;DHT22;8802;52.402;4.920;2023-03-14T06:27:50;12.30;99.90
17370;DHT22;8802;52.402;4.920;2023-03-14T06:30:17;12.30;99.90
17370;DHT22;8802;52.402;4.920;2023-03-14T06:32:43;12.20;99.90
17370;DHT22;8802;52.402;4.920;2023-03-14T06:35:10;12.20;99.90
17370;DHT22;8802;52.402;4.920;2023-03-14T06:37:37;12.10;99.90
17370;DHT22;8802;52.402;4.920;2023-03-14T06:40:05;12.10;99.90
17370;DHT22;8802;52.402;4.920;2023-03-14T06:42:34;12.10;99.90
17370;DHT22;8802;52.402;4.920;2023-03-14T06:45:00;12.00;99.90
17370;DHT22;8802;52.402;4.920;2023-03-14T06:47:28;12.00;99.90
17370;DHT22;8802;52.402;4.920;2023-03-14T06:49:55;11.90;99.90
17370;DHT22;8802;52.402;4.920;2023-03-14T06:52:22;11.90;99.90
17370;DHT22;8802;52.402;4.920;2023-03-14T06:54:49;11.80;99.90
17370;DHT22;8802;52.402;4.920;2023-03-14T06:57:16;11.80;99.90
17370;DHT22;8802;52.402;4.920;2023-03-14T06:59:44;11.80;99.90
17370;DHT22;8802;52.402;4.920;2023-03-14T07:02:11;11.70;99.90
17370;DHT22;8802;52.402;4.920;2023-03-14T07:04:38;11.70;99.90
17370;DHT22;8802;52.402;4.920;2023-03-14T07:07:05;11.70;99.90
17370;DHT22;8802;52.402;4.920;2023-03-14T07:09:33;11.60;99.90
17370;DHT22;8802;52.402;4.920;2023-03-14T07:12:00;11.60;99.90
17370;DHT22;8802;52.402;4.920;2023-03-14T07:14:26;11.60;99.90
17370;DHT22;8802;52.402;4.920;2023-03-14T07:16:55;11.60;99.90
17370;DHT22;8802;52.402;4.920;2023-03-14T07:19:21;11.60;99.90
17370;DHT22;8802;52.402;4.920;2023-03-14T07:21:48;11.50;99.90
17370;DHT22;8802;52.402;4.920;2023-03-14T07:24:15;11.50;99.90
17370;DHT22;8802;52.402;4.920;2023-03-14T07:26:42;11.40;99.90
17370;DHT22;8802;52.402;4.920;2023-03-14T07:29:09;11.30;99.90
17370;DHT22;8802;52.402;4.920;2023-03-14T07:31:35;11.30;99.90
17370;DHT22;8802;52.402;4.920;2023-03-14T07:34:04;11.20;99.90
17370;DHT22;8802;52.402;4.920;2023-03-14T07:36:30;11.20;99.90
17370;DHT22;8802;52.402;4.920;2023-03-14T07:38:57;11.10;99.90
17370;DHT22;8802;52.402;4.920;2023-03-14T07:41:24;11.00;99.90
17370;DHT22;8802;52.402;4.920;2023-03-14T07:43:51;10.90;99.90
17370;DHT22;8802;52.402;4.920;2023-03-14T07:46:18;10.80;99.90
17370;DHT22;8802;52.402;4.920;2023-03-14T07:48:45;10.70;99.90
17370;DHT22;8802;52.402;4.920;2023-03-14T07:51:13;10.70;99.90
17370;DHT22;8802;52.402;4.920;2023-03-14T07:53:40;10.60;99.90
17370;DHT22;8802;52.402;4.920;2023-03-14T07:56:09;10.50;99.90
17370;DHT22;8802;52.402;4.920;2023-03-14T07:58:35;10.40;99.90
17370;DHT22;8802;52.402;4.920;2023-03-14T08:01:02;10.30;99.90
17370;DHT22;8802;52.402;4.920;2023-03-14T08:03:30;10.30;99.90
17370;DHT22;8802;52.402;4.920;2023-03-14T08:05:56;10.20;99.90
17370;DHT22;8802;52.402;4.920;2023-03-14T08:08:25;10.20;99.90
17370;DHT22;8802;52.402;4.920;2023-03-14T08:10:51;10.20;99.90
17370;DHT22;8802;52.402;4.920;2023-03-14T08:13:18;10.20;99.90
17370;DHT22;8802;52.402;4.920;2023-03-14T08:15:48;10.20;99.90
17370;DHT22;8802;52.402;4.920;2023-03-14T08:18:15;10.20;99.90
17370;DHT22;8802;52.402;4.920;2023-03-14T08:20:42;10.20;99.90
17370;DHT22;8802;52.402;4.920;2023-03-14T08:23:08;10.20;99.90
17370;DHT22;8802;52.402;4.920;2023-03-14T08:25:37;10.20;99.90
17370;DHT22;8802;52.402;4.920;2023-03-14T08:28:04;10.20;99.90
17370;DHT22;8802;52.402;4.920;2023-03-14T08:30:31;10.20;99.90
17370;DHT22;8802;52.402;4.920;2023-03-14T08:32:58;10.30;99.90
17370;DHT22;8802;52.402;4.920;2023-03-14T08:35:25;10.30;99.90
17370;DHT22;8802;52.402;4.920;2023-03-14T08:37:52;10.30;99.90
17370;DHT22;8802;52.402;4.920;2023-03-14T08:40:19;10.30;99.90
17370;DHT22;8802;52.402;4.920;2023-03-14T08:42:47;10.30;99.90
17370;DHT22;8802;52.402;4.920;2023-03-14T08:45:16;10.30;99.90
17370;DHT22;8802;52.402;4.920;2023-03-14T08:47:43;10.40;99.90
17370;DHT22;8802;52.402;4.920;2023-03-14T08:50:12;10.40;99.90
17370;DHT22;8802;52.402;4.920;2023-03-14T08:52:39;10.40;99.90
17370;DHT22;8802;52.402;4.920;2023-03-14T08:55:07;10.40;99.90
17370;DHT22;8802;52.402;4.920;2023-03-14T08:57:34;10.40;99.90
17370;DHT22;8802;52.402;4.920;2023-03-14T09:00:04;10.40;99.90
17370;DHT22;8802;52.402;4.920;2023-03-14T09:02:35;10.50;99.90
17370;DHT22;8802;52.402;4.920;2023-03-14T09:05:03;10.50;99.90
17370;DHT22;8802;52.402;4.920;2023-03-14T09:07:30;10.50;99.90
17370;DHT22;8802;52.402;4.920;2023-03-14T09:09:57;10.50;99.90
17370;DHT22;8802;52.402;4.920;2023-03-14T09:12:23;10.50;99.90
17370;DHT22;8802;52.402;4.920;2023-03-14T09:14:50;10.60;99.90
17370;DHT22;8802;52.402;4.920;2023-03-14T09:17:18;10.60;99.90
17370;DHT22;8802;52.402;4.920;2023-03-14T09:19:45;10.50;99.90
17370;DHT22;8802;52.402;4.920;2023-03-14T09:22:12;10.60;99.90
17370;DHT22;8802;52.402;4.920;2023-03-14T09:24:40;10.60;99.90
17370;DHT22;8802;52.402;4.920;2023-03-14T09:27:07;10.60;99.90
17370;DHT22;8802;52.402;4.920;2023-03-14T09:29:34;10.60;99.90
17370;DHT22;8802;52.402;4.920;2023-03-14T09:32:01;10.60;99.90
17370;DHT22;8802;52.402;4.920;2023-03-14T09:34:30;10.60;99.90
17370;DHT22;8802;52.402;4.920;2023-03-14T09:36:57;10.60;99.90
17370;DHT22;8802;52.402;4.920;2023-03-14T09:39:23;10.60;99.90
17370;DHT22;8802;52.402;4.920;2023-03-14T09:41:52;10.60;99.90
17370;DHT22;8802;52.402;4.920;2023-03-14T09:44:25;10.50;99.90
17370;DHT22;8802;52.402;4.920;2023-03-14T09:46:55;10.50;99.90
17370;DHT22;8802;52.402;4.920;2023-03-14T09:49:26;10.50;99.90
17370;DHT22;8802;52.402;4.920;2023-03-14T09:51:57;10.50;99.90
17370;DHT22;8802;52.402;4.920;2023-03-14T09:54:35;10.50;99.90
17370;DHT22;8802;52.402;4.920;2023-03-14T09:57:04;10.60;99.90
17370;DHT22;8802;52.402;4.920;2023-03-14T09:59:32;10.60;99.90
17370;DHT22;8802;52.402;4.920;2023-03-14T10:02:01;10.60;99.90
17370;DHT22;8802;52.402;4.920;2023-03-14T10:04:38;10.60;99.90
17370;DHT22;8802;52.402;4.920;2023-03-14T10:07:14;10.60;99.90
17370;DHT22;8802;52.402;4.920;2023-03-14T10:09:43;10.70;99.90
17370;DHT22;8802;52.402;4.920;2023-03-14T10:12:11;10.70;99.90
17370;DHT22;8802;52.402;4.920;2023-03-14T10:14:46;10.70;99.90
17370;DHT22;8802;52.402;4.920;2023-03-14T10:17:14;10.70;99.90
17370;DHT22;8802;52.402;4.920;2023-03-14T10:19:51;10.60;99.90
17370;DHT22;8802;52.402;4.920;2023-03-14T10:22:21;10.60;99.90
17370;DHT22;8802;52.402;4.920;2023-03-14T10:24:52;10.70;99.90
17370;DHT22;8802;52.402;4.920;2023-03-14T10:27:21;10.70;99.90
17370;DHT22;8802;52.402;4.920;2023-03-14T10:29:54;10.70;99.90
17370;DHT22;8802;52.402;4.920;2023-03-14T10:32:27;10.80;99.90
17370;DHT22;8802;52.402;4.920;2023-03-14T10:35:06;10.80;99.90
17370;DHT22;8802;52.402;4.920;2023-03-14T10:37:35;10.90;99.40
17370;DHT22;8802;52.402;4.920;2023-03-14T10:40:03;11.00;98.90
17370;DHT22;8802;52.402;4.920;2023-03-14T10:42:38;11.10;99.40
17370;DHT22;8802;52.402;4.920;2023-03-14T10:45:20;11.10;99.00
17370;DHT22;8802;52.402;4.920;2023-03-14T10:47:49;11.30;98.70
17370;DHT22;8802;52.402;4.920;2023-03-14T10:50:23;11.40;98.60
17370;DHT22;8802;52.402;4.920;2023-03-14T10:52:53;11.50;98.60
17370;DHT22;8802;52.402;4.920;2023-03-14T10:55:21;11.60;99.50
17370;DHT22;8802;52.402;4.920;2023-03-14T10:57:47;11.70;98.60
17370;DHT22;8802;52.402;4.920;2023-03-14T11:00:17;11.80;98.10
17370;DHT22;8802;52.402;4.920;2023-03-14T11:02:56;11.90;98.30
17370;DHT22;8802;52.402;4.920;2023-03-14T11:05:29;12.00;98.10
17370;DHT22;8802;52.402;4.920;2023-03-14T11:08:01;12.10;97.90
17370;DHT22;8802;52.402;4.920;2023-03-14T11:10:32;12.30;97.90
17370;DHT22;8802;52.402;4.920;2023-03-14T11:13:08;12.40;97.50
17370;DHT22;8802;52.402;4.920;2023-03-14T11:15:43;12.50;97.30
17370;DHT22;8802;52.402;4.920;2023-03-14T11:18:43;12.60;97.80
17370;DHT22;8802;52.402;4.920;2023-03-14T11:21:17;12.70;98.00
17370;DHT22;8802;52.402;4.920;2023-03-14T11:23:52;12.80;97.30
17370;DHT22;8802;52.402;4.920;2023-03-14T11:26:29;12.90;96.70
17370;DHT22;8802;52.402;4.920;2023-03-14T11:29:14;13.00;96.80
17370;DHT22;8802;52.402;4.920;2023-03-14T11:31:45;13.00;96.20
17370;DHT22;8802;52.402;4.920;2023-03-14T11:34:16;13.10;97.10
17370;DHT22;8802;52.402;4.920;2023-03-14T11:36:48;13.20;96.00
17370;DHT22;8802;52.402;4.920;2023-03-14T11:39:19;13.20;95.80
17370;DHT22;8802;52.402;4.920;2023-03-14T11:41:48;13.20;95.20
17370;DHT22;8802;52.402;4.920;2023-03-14T11:44:19;13.30;95.90
17370;DHT22;8802;52.402;4.920;2023-03-14T11:46:49;13.30;94.90
17370;DHT22;8802;52.402;4.920;2023-03-14T11:49:26;13.30;95.70
17370;DHT22;8802;52.402;4.920;2023-03-14T11:51:59;13.40;96.00
17370;DHT22;8802;52.402;4.920;2023-03-14T11:54:35;13.40;95.80
17370;DHT22;8802;52.402;4.920;2023-03-14T11:57:11;13.50;94.80
17370;DHT22;8802;52.402;4.920;2023-03-14T11:59:47;13.50;94.60
17370;DHT22;8802;52.402;4.920;2023-03-14T12:02:22;13.60;94.10
17370;DHT22;8802;52.402;4.920;2023-03-14T12:05:14;13.60;94.30
17370;DHT22;8802;52.402;4.920;2023-03-14T12:07:51;13.60;94.90
17370;DHT22;8802;52.402;4.920;2023-03-14T12:10:27;13.60;94.50
17370;DHT22;8802;52.402;4.920;2023-03-14T12:12:54;13.60;94.10
17370;DHT22;8802;52.402;4.920;2023-03-14T12:15:22;13.70;93.80
17370;DHT22;8802;52.402;4.920;2023-03-14T12:17:54;13.70;94.00
17370;DHT22;8802;52.402;4.920;2023-03-14T12:20:22;13.60;93.50
17370;DHT22;8802;52.402;4.920;2023-03-14T12:22:51;13.70;94.00
17370;DHT22;8802;52.402;4.920;2023-03-14T12:25:20;13.60;94.10
17370;DHT22;8802;52.402;4.920;2023-03-14T12:28:16;13.60;93.60
17370;DHT22;8802;52.402;4.920;2023-03-14T12:30:43;13.60;92.90
17370;DHT22;8802;52.402;4.920;2023-03-14T12:33:12;13.60;93.00
17370;DHT22;8802;52.402;4.920;2023-03-14T12:35:40;13.60;93.00
17370;DHT22;8802;52.402;4.920;2023-03-14T12:38:09;13.60;93.30
17370;DHT22;8802;52.402;4.920;2023-03-14T12:40:41;13.60;92.80
17370;DHT22;8802;52.402;4.920;2023-03-14T12:43:26;13.60;92.90
17370;DHT22;8802;52.402;4.920;2023-03-14T12:46:19;13.50;92.80
17370;DHT22;8802;52.402;4.920;2023-03-14T12:48:48;13.50;92.70
17370;DHT22;8802;52.402;4.920;2023-03-14T12:51:17;13.50;93.60
17370;DHT22;8802;52.402;4.920;2023-03-14T12:54:10;13.50;93.70
17370;DHT22;8802;52.402;4.920;2023-03-14T12:56:57;13.40;93.30
17370;DHT22;8802;52.402;4.920;2023-03-14T12:59:33;13.50;93.40
17370;DHT22;8802;52.402;4.920;2023-03-14T13:02:10;13.50;93.90
17370;DHT22;8802;52.402;4.920;2023-03-14T13:04:44;13.40;93.90
17370;DHT22;8802;52.402;4.920;2023-03-14T13:07:13;13.40;93.80
17370;DHT22;8802;52.402;4.920;2023-03-14T13:12:47;13.40;92.90
17370;DHT22;8802;52.402;4.920;2023-03-14T13:15:24;13.40;93.20
17370;DHT22;8802;52.402;4.920;2023-03-14T13:17:54;13.30;93.00
17370;DHT22;8802;52.402;4.920;2023-03-14T13:20:27;13.30;93.30
17370;DHT22;8802;52.402;4.920;2023-03-14T13:22:54;13.20;93.30
17370;DHT22;8802;52.402;4.920;2023-03-14T13:25:21;13.20;94.00
17370;DHT22;8802;52.402;4.920;2023-03-14T13:27:48;13.20;92.80
17370;DHT22;8802;52.402;4.920;2023-03-14T13:30:20;13.10;92.70
17370;DHT22;8802;52.402;4.920;2023-03-14T13:32:49;13.10;93.10
17370;DHT22;8802;52.402;4.920;2023-03-14T13:35:18;13.10;93.60
17370;DHT22;8802;52.402;4.920;2023-03-14T13:37:46;13.10;92.90
17370;DHT22;8802;52.402;4.920;2023-03-14T13:40:20;13.10;93.00
17370;DHT22;8802;52.402;4.920;2023-03-14T13:43:03;13.10;92.70
17370;DHT22;8802;52.402;4.920;2023-03-14T13:45:54;13.10;91.80
17370;DHT22;8802;52.402;4.920;2023-03-14T13:48:26;13.10;92.20
17370;DHT22;8802;52.402;4.920;2023-03-14T13:50:55;13.00;92.00
17370;DHT22;8802;52.402;4.920;2023-03-14T13:53:23;12.90;92.20
17370;DHT22;8802;52.402;4.920;2023-03-14T13:55:51;12.90;92.10
17370;DHT22;8802;52.402;4.920;2023-03-14T13:58:29;12.80;91.60
17370;DHT22;8802;52.402;4.920;2023-03-14T14:01:03;12.70;91.50
17370;DHT22;8802;52.402;4.920;2023-03-14T14:03:33;12.70;91.80
17370;DHT22;8802;52.402;4.920;2023-03-14T14:06:00;12.60;92.70
17370;DHT22;8802;52.402;4.920;2023-03-14T14:08:27;12.60;92.70
17370;DHT22;8802;52.402;4.920;2023-03-14T14:10:58;12.50;93.50
17370;DHT22;8802;52.402;4.920;2023-03-14T14:13:27;12.50;93.50
17370;DHT22;8802;52.402;4.920;2023-03-14T14:16:01;12.50;93.70
17370;DHT22;8802;52.402;4.920;2023-03-14T14:18:29;12.50;93.00
17370;DHT22;8802;52.402;4.920;2023-03-14T14:20:57;12.50;93.50
17370;DHT22;8802;52.402;4.920;2023-03-14T14:23:26;12.50;93.30
17370;DHT22;8802;52.402;4.920;2023-03-14T14:25:55;12.50;93.40
17370;DHT22;8802;52.402;4.920;2023-03-14T14:28:25;12.50;93.50
17370;DHT22;8802;52.402;4.920;2023-03-14T14:31:05;12.50;94.10
17370;DHT22;8802;52.402;4.920;2023-03-14T14:33:40;12.50;94.10
17370;DHT22;8802;52.402;4.920;2023-03-14T14:36:26;12.50;93.60
17370;DHT22;8802;52.402;4.920;2023-03-14T14:38:56;12.50;92.80
17370;DHT22;8802;52.402;4.920;2023-03-14T14:41:27;12.50;92.60
17370;DHT22;8802;52.402;4.920;2023-03-14T14:43:56;12.40;92.80
17370;DHT22;8802;52.402;4.920;2023-03-14T14:46:27;12.40;93.20
17370;DHT22;8802;52.402;4.920;2023-03-14T14:48:55;12.40;93.00
17370;DHT22;8802;52.402;4.920;2023-03-14T14:51:24;12.30;92.40
17370;DHT22;8802;52.402;4.920;2023-03-14T14:54:09;12.30;93.00
17370;DHT22;8802;52.402;4.920;2023-03-14T14:56:38;12.20;92.70
17370;DHT22;8802;52.402;4.920;2023-03-14T14:59:07;12.20;92.60
17370;DHT22;8802;52.402;4.920;2023-03-14T15:01:46;12.20;93.30
17370;DHT22;8802;52.402;4.920;2023-03-14T15:04:15;12.10;92.90
17370;DHT22;8802;52.402;4.920;2023-03-14T15:06:43;12.00;92.80
17370;DHT22;8802;52.402;4.920;2023-03-14T15:09:11;12.00;93.30
17370;DHT22;8802;52.402;4.920;2023-03-14T15:11:38;12.00;92.40
17370;DHT22;8802;52.402;4.920;2023-03-14T15:14:05;12.00;93.10
17370;DHT22;8802;52.402;4.920;2023-03-14T15:16:32;11.90;92.80
17370;DHT22;8802;52.402;4.920;2023-03-14T15:19:02;11.90;93.30
17370;DHT22;8802;52.402;4.920;2023-03-14T15:21:31;11.90;93.20
17370;DHT22;8802;52.402;4.920;2023-03-14T15:23:58;11.90;94.00
17370;DHT22;8802;52.402;4.920;2023-03-14T15:26:26;11.80;93.40
17370;DHT22;8802;52.402;4.920;2023-03-14T15:28:57;11.80;93.80
17370;DHT22;8802;52.402;4.920;2023-03-14T15:31:24;11.80;93.90
17370;DHT22;8802;52.402;4.920;2023-03-14T15:33:50;11.80;94.30
17370;DHT22;8802;52.402;4.920;2023-03-14T15:36:24;11.80;94.50
17370;DHT22;8802;52.402;4.920;2023-03-14T15:38:52;11.80;94.10
17370;DHT22;8802;52.402;4.920;2023-03-14T15:41:20;11.80;94.70
17370;DHT22;8802;52.402;4.920;2023-03-14T15:43:47;11.80;94.70
17370;DHT22;8802;52.402;4.920;2023-03-14T15:46:14;11.70;94.80
17370;DHT22;8802;52.402;4.920;2023-03-14T15:48:43;11.80;94.90
17370;DHT22;8802;52.402;4.920;2023-03-14T15:51:10;11.70;94.30
17370;DHT22;8802;52.402;4.920;2023-03-14T15:53:39;11.70;93.60
17370;DHT22;8802;52.402;4.920;2023-03-14T15:56:07;11.70;94.30
17370;DHT22;8802;52.402;4.920;2023-03-14T15:58:36;11.70;93.60
17370;DHT22;8802;52.402;4.920;2023-03-14T16:01:06;11.70;94.60